Time;durP1;ratioP1;P1;durP2;ratioP2;P2;SDS_P1;SDS_P2;PMS_P1;PMS_P2;Temp;Humidity;BMP_temperature;BMP_pressure;BME280_temperature;BME280_humidity;BME280_pressure;Samples;Min_cycle;Max_cycle;Signal;HPM_P1;HPM_P2
2024/04/14 00:02:03;;;;;;;1.88;0.90;;;;;;;;;;5468822;26;20396;-90
2024/04/14 00:05:07;;;;;;;1.08;1.05;;;;;;;;;;5467442;26;20279;-91
2024/04/14 00:08:18;;;;;;;1.38;1.00;;;;;;;;;;5467628;26;20254;-92
2024/04/14 00:11:23;;;;;;;1.45;1.10;;;;;;;;;;5466769;26;20266;-93
2024/04/14 00:14:30;;;;;;;0.70;0.70;;;;;;;;;;5466979;26;20262;-92
2024/04/14 00:17:34;;;;;;;0.60;0.60;;;;;;;;;;5466635;26;20277;-91
2024/04/14 00:20:41;;;;;;;1.35;1.25;;;;;;;;;;5468685;26;20627;-92
2024/04/14 00:23:52;;;;;;;0.43;0.43;;;;;;;;;;5470371;26;20712;-92
2024/04/14 00:26:57;;;;;;;1.48;0.82;;;;;;;;;;5468335;26;20308;-92
2024/04/14 00:30:03;;;;;;;7.78;1.17;;;;;;;;;;5470046;26;20391;-92
2024/04/14 00:33:10;;;;;;;2.55;1.48;;;;;;;;;;5468685;26;20476;-91
2024/04/14 00:36:17;;;;;;;0.80;0.70;;;;;;;;;;5466859;26;20258;-90
2024/04/14 00:39:23;;;;;;;0.90;0.90;;;;;;;;;;5465247;26;20262;-91
2024/04/14 00:42:30;;;;;;;7.55;1.67;;;;;;;;;;5465540;26;20288;-91
2024/04/14 00:45:34;;;;;;;1.15;1.00;;;;;;;;;;5464339;26;20250;-91
2024/04/14 00:48:42;;;;;;;1.08;0.82;;;;;;;;;;5465401;26;20327;-91
2024/04/14 00:51:46;;;;;;;0.73;0.73;;;;;;;;;;5465485;26;20266;-92
2024/04/14 00:54:55;;;;;;;1.67;1.33;;;;;;;;;;5466131;26;20263;-92
2024/04/14 00:58:00;;;;;;;1.58;0.93;;;;;;;;;;5464811;26;20241;-92
2024/04/14 01:01:08;;;;;;;1.90;0.68;;;;;;;;;;5465300;26;20254;-91
2024/04/14 01:04:12;;;;;;;1.15;0.77;;;;;;;;;;5464838;26;20650;-90
2024/04/14 01:07:19;;;;;;;1.15;1.08;;;;;;;;;;5463917;26;20353;-91
2024/04/14 01:10:28;;;;;;;1.83;1.08;;;;;;;;;;5464525;26;20262;-92
2024/04/14 01:13:35;;;;;;;2.28;0.98;;;;;;;;;;5464760;26;20250;-91
2024/04/14 01:16:41;;;;;;;0.70;0.57;;;;;;;;;;5464624;26;20270;-92
2024/04/14 01:19:49;;;;;;;0.95;0.95;;;;;;;;;;5464348;26;20258;-91
2024/04/14 01:22:53;;;;;;;0.65;0.65;;;;;;;;;;5465198;26;20273;-92
2024/04/14 01:26:02;;;;;;;1.45;0.98;;;;;;;;;;5463863;26;20327;-92
2024/04/14 01:29:06;;;;;;;0.77;0.70;;;;;;;;;;5464593;26;20247;-91
2024/04/14 01:32:16;;;;;;;0.75;0.65;;;;;;;;;;5463380;26;20336;-91
2024/04/14 01:35:23;;;;;;;1.25;0.73;;;;;;;;;;5463686;26;20297;-90
2024/04/14 01:38:27;;;;;;;16.55;1.85;;;;;;;;;;5468852;26;20250;-92
2024/04/14 01:41:36;;;;;;;1.67;1.15;;;;;;;;;;5467681;26;20262;-91
2024/04/14 01:44:40;;;;;;;0.70;0.70;;;;;;;;;;5469074;26;20246;-92
2024/04/14 01:47:47;;;;;;;0.77;0.77;;;;;;;;;;5468479;26;20269;-91
2024/04/14 01:50:51;;;;;;;0.50;0.50;;;;;;;;;;5467811;26;20285;-91
2024/04/14 01:53:58;;;;;;;0.70;0.70;;;;;;;;;;5467775;26;20289;-92
2024/04/14 01:57:05;;;;;;;0.93;0.85;;;;;;;;;;5465480;26;20296;-93
2024/04/14 02:00:12;;;;;;;0.82;0.82;;;;;;;;;;5464431;26;20270;-92
2024/04/14 02:03:20;;;;;;;1.33;0.98;;;;;;;;;;5464131;26;20324;-92
2024/04/14 02:06:27;;;;;;;6.13;1.17;;;;;;;;;;5463913;26;20292;-91
2024/04/14 02:09:31;;;;;;;1.80;1.55;;;;;;;;;;5463383;26;20258;-92
2024/04/14 02:12:41;;;;;;;1.48;1.17;;;;;;;;;;5463016;26;20273;-93
2024/04/14 02:15:46;;;;;;;0.70;0.70;;;;;;;;;;5463328;26;20296;-92
2024/04/14 02:18:52;;;;;;;0.85;0.85;;;;;;;;;;5463084;26;20278;-90
2024/04/14 02:21:56;;;;;;;1.02;0.93;;;;;;;;;;5463511;26;20270;-92
2024/04/14 02:25:03;;;;;;;2.38;1.25;;;;;;;;;;5464688;26;20269;-93
2024/04/14 02:28:10;;;;;;;1.85;0.85;;;;;;;;;;5463021;26;20320;-90
2024/04/14 02:31:17;;;;;;;4.63;1.92;;;;;;;;;;5463212;26;20301;-91
2024/04/14 02:34:22;;;;;;;1.48;1.15;;;;;;;;;;5464313;26;20301;-92
2024/04/14 02:37:29;;;;;;;0.63;0.63;;;;;;;;;;5462769;26;20321;-91
2024/04/14 02:40:34;;;;;;;0.70;0.70;;;;;;;;;;5463880;26;20324;-92
2024/04/14 02:43:48;;;;;;;1.02;0.95;;;;;;;;;;5463556;26;20319;-91
2024/04/14 02:46:52;;;;;;;0.50;0.50;;;;;;;;;;5462894;26;20263;-91
2024/04/14 02:49:59;;;;;;;0.30;0.30;;;;;;;;;;5463941;26;20277;-93
2024/04/14 02:53:04;;;;;;;1.70;1.52;;;;;;;;;;5462517;26;20258;-92
2024/04/14 02:56:12;;;;;;;2.60;1.40;;;;;;;;;;5464099;26;20283;-92
2024/04/14 02:59:19;;;;;;;0.40;0.40;;;;;;;;;;5467112;26;20582;-91
2024/04/14 03:02:27;;;;;;;0.93;0.93;;;;;;;;;;5467515;26;20278;-91
2024/04/14 03:05:31;;;;;;;1.30;1.20;;;;;;;;;;5465487;26;20324;-91
2024/04/14 03:08:38;;;;;;;3.10;1.20;;;;;;;;;;5461803;26;20810;-92
2024/04/14 03:11:44;;;;;;;0.77;0.70;;;;;;;;;;5462417;26;20262;-93
2024/04/14 03:14:53;;;;;;;3.25;1.80;;;;;;;;;;5462131;26;20258;-91
2024/04/14 03:18:00;;;;;;;0.43;0.43;;;;;;;;;;5463910;26;20269;-92
2024/04/14 03:21:04;;;;;;;1.90;1.02;;;;;;;;;;5466120;26;20571;-91
2024/04/14 03:24:11;;;;;;;1.20;1.20;;;;;;;;;;5466143;26;20277;-92
2024/04/14 03:27:15;;;;;;;1.98;1.23;;;;;;;;;;5466577;26;20279;-91
2024/04/14 03:30:29;;;;;;;3.13;1.08;;;;;;;;;;5467416;26;20274;-92
2024/04/14 03:33:33;;;;;;;1.13;1.02;;;;;;;;;;5466746;26;20285;-91
2024/04/14 03:36:40;;;;;;;1.20;1.10;;;;;;;;;;5467681;26;20274;-92
2024/04/14 03:39:47;;;;;;;1.63;0.88;;;;;;;;;;5465129;26;20265;-91
2024/04/14 03:42:54;;;;;;;0.70;0.70;;;;;;;;;;5465139;26;20308;-92
2024/04/14 03:46:03;;;;;;;1.58;0.80;;;;;;;;;;5465670;26;20291;-92
2024/04/14 03:49:10;;;;;;;1.65;1.55;;;;;;;;;;5465362;26;20273;-91
2024/04/14 03:52:15;;;;;;;0.60;0.60;;;;;;;;;;5465243;26;20258;-91
2024/04/14 03:55:22;;;;;;;3.33;1.85;;;;;;;;;;5464516;26;20332;-92
2024/04/14 03:58:27;;;;;;;2.25;1.33;;;;;;;;;;5465295;26;20258;-92
2024/04/14 04:01:36;;;;;;;0.60;0.60;;;;;;;;;;5466307;26;20271;-91
2024/04/14 04:04:40;;;;;;;1.17;0.82;;;;;;;;;;5466283;26;20284;-92
2024/04/14 04:07:50;;;;;;;0.65;0.60;;;;;;;;;;5467516;26;20270;-92
2024/04/14 04:11:02;;;;;;;2.80;1.20;;;;;;;;;;5465154;26;20336;-92
2024/04/14 04:14:09;;;;;;;3.20;1.45;;;;;;;;;;5465852;26;20324;-93
2024/04/14 04:17:18;;;;;;;0.70;0.70;;;;;;;;;;5465306;26;20274;-91
2024/04/14 04:20:22;;;;;;;0.88;0.88;;;;;;;;;;5466364;26;20263;-92
2024/04/14 04:23:29;;;;;;;0.95;0.75;;;;;;;;;;5466916;26;20300;-92
2024/04/14 04:26:33;;;;;;;0.82;0.82;;;;;;;;;;5466691;26;20254;-90
2024/04/14 04:29:40;;;;;;;0.68;0.68;;;;;;;;;;5466268;26;20258;-91
2024/04/14 04:32:48;;;;;;;0.60;0.60;;;;;;;;;;5465334;26;20266;-91
2024/04/14 04:35:55;;;;;;;2.17;1.55;;;;;;;;;;5467150;26;20285;-91
2024/04/14 04:39:02;;;;;;;1.52;1.42;;;;;;;;;;5464529;26;20262;-91
2024/04/14 04:42:10;;;;;;;1.55;1.15;;;;;;;;;;5465010;26;20301;-90
2024/04/14 04:45:18;;;;;;;1.58;1.35;;;;;;;;;;5465077;26;20278;-91
2024/04/14 04:48:28;;;;;;;0.80;0.80;;;;;;;;;;5463755;26;20807;-92
2024/04/14 04:51:35;;;;;;;0.73;0.73;;;;;;;;;;5464778;26;20270;-92
2024/04/14 04:54:39;;;;;;;1.05;0.88;;;;;;;;;;5464948;26;20262;-90
2024/04/14 04:57:46;;;;;;;0.63;0.63;;;;;;;;;;5463669;26;20791;-91
2024/04/14 05:00:56;;;;;;;0.68;0.68;;;;;;;;;;5464435;26;20253;-91
2024/04/14 05:04:05;;;;;;;1.55;1.10;;;;;;;;;;5463867;26;20660;-91
2024/04/14 05:07:09;;;;;;;1.05;0.95;;;;;;;;;;5464253;26;20266;-90
2024/04/14 05:10:16;;;;;;;0.75;0.75;;;;;;;;;;5465672;26;20387;-91
2024/04/14 05:13:24;;;;;;;3.88;1.80;;;;;;;;;;5465629;26;20309;-90
2024/04/14 05:16:31;;;;;;;0.57;0.57;;;;;;;;;;5464981;26;20336;-90
2024/04/14 05:19:38;;;;;;;1.17;1.08;;;;;;;;;;5464083;26;20299;-91
2024/04/14 05:22:45;;;;;;;2.72;0.60;;;;;;;;;;5465536;26;20284;-90
2024/04/14 05:25:52;;;;;;;0.98;0.98;;;;;;;;;;5464525;26;20266;-90
2024/04/14 05:28:59;;;;;;;3.90;1.17;;;;;;;;;;5464094;26;20267;-90
2024/04/14 05:32:03;;;;;;;1.38;1.00;;;;;;;;;;5463399;26;20293;-90
2024/04/14 05:35:13;;;;;;;4.63;1.33;;;;;;;;;;5462288;26;20339;-90
2024/04/14 05:38:17;;;;;;;0.93;0.93;;;;;;;;;;5463730;26;20379;-91
2024/04/14 05:41:25;;;;;;;3.22;1.95;;;;;;;;;;5463600;26;20265;-90
2024/04/14 05:44:29;;;;;;;1.50;1.38;;;;;;;;;;5466876;26;20274;-90
2024/04/14 05:47:36;;;;;;;0.68;0.68;;;;;;;;;;5468180;26;20720;-91
2024/04/14 05:50:43;;;;;;;1.80;1.20;;;;;;;;;;5466039;26;20333;-91
2024/04/14 05:53:51;;;;;;;2.63;1.10;;;;;;;;;;5467675;26;20338;-90
2024/04/14 05:56:55;;;;;;;1.10;0.90;;;;;;;;;;5466049;26;20339;-92
2024/04/14 06:00:02;;;;;;;1.20;0.82;;;;;;;;;;5467308;26;20269;-91
2024/04/14 06:03:09;;;;;;;0.88;0.88;;;;;;;;;;5464412;26;20320;-90
2024/04/14 06:06:17;;;;;;;1.02;0.98;;;;;;;;;;5463721;26;20308;-91
2024/04/14 06:09:25;;;;;;;0.73;0.50;;;;;;;;;;5465330;26;20266;-92
2024/04/14 06:12:29;;;;;;;0.65;0.65;;;;;;;;;;5464687;26;20333;-91
2024/04/14 06:15:35;;;;;;;1.90;1.65;;;;;;;;;;5465967;26;20302;-91
2024/04/14 06:18:43;;;;;;;1.52;1.40;;;;;;;;;;5465123;26;20309;-91
2024/04/14 06:21:49;;;;;;;0.70;0.70;;;;;;;;;;5464312;26;20258;-92
2024/04/14 06:24:56;;;;;;;3.50;1.15;;;;;;;;;;5464895;26;20298;-92
2024/04/14 06:28:00;;;;;;;5.30;1.48;;;;;;;;;;5466021;26;20299;-93
2024/04/14 06:31:07;;;;;;;1.17;1.08;;;;;;;;;;5466616;26;20325;-92
2024/04/14 06:34:12;;;;;;;0.75;0.75;;;;;;;;;;5465065;26;20293;-92
2024/04/14 06:37:22;;;;;;;1.67;1.52;;;;;;;;;;5465907;26;20300;-93
2024/04/14 06:40:29;;;;;;;0.95;0.95;;;;;;;;;;5465469;26;20267;-92
2024/04/14 06:43:35;;;;;;;1.05;0.95;;;;;;;;;;5465858;26;20323;-91
2024/04/14 06:46:40;;;;;;;3.65;1.42;;;;;;;;;;5466480;26;20258;-91
2024/04/14 06:49:47;;;;;;;1.00;0.63;;;;;;;;;;5464954;26;20246;-92
2024/04/14 06:52:54;;;;;;;2.25;1.25;;;;;;;;;;5466359;26;20266;-92
2024/04/14 06:56:01;;;;;;;2.10;1.83;;;;;;;;;;5469993;26;20332;-93
2024/04/14 06:59:06;;;;;;;1.00;1.00;;;;;;;;;;5469255;26;20262;-94
2024/04/14 07:02:13;;;;;;;1.25;1.08;;;;;;;;;;5470276;26;20265;-92
2024/04/14 07:05:19;;;;;;;2.55;1.23;;;;;;;;;;5469281;26;20330;-92
2024/04/14 07:08:26;;;;;;;0.68;0.68;;;;;;;;;;5468649;26;20275;-92
2024/04/14 07:11:33;;;;;;;3.33;1.73;;;;;;;;;;5467143;26;20254;-93
2024/04/14 07:14:37;;;;;;;1.85;1.05;;;;;;;;;;5467604;26;20277;-92
2024/04/14 07:17:44;;;;;;;4.18;1.40;;;;;;;;;;5466321;26;20327;-92
2024/04/14 07:20:48;;;;;;;3.30;1.48;;;;;;;;;;5468653;26;20345;-92
2024/04/14 07:23:59;;;;;;;1.15;1.05;;;;;;;;;;5470050;26;20416;-92
2024/04/14 07:27:07;;;;;;;0.68;0.68;;;;;;;;;;5467587;26;20266;-93
2024/04/14 07:30:12;;;;;;;2.70;1.88;;;;;;;;;;5467371;26;20238;-92
2024/04/14 07:33:19;;;;;;;1.40;0.93;;;;;;;;;;5467823;26;20266;-93
2024/04/14 07:36:23;;;;;;;0.70;0.70;;;;;;;;;;5468356;26;20270;-91
2024/04/14 07:39:36;;;;;;;2.38;1.35;;;;;;;;;;5467852;26;20287;-92
2024/04/14 07:42:43;;;;;;;1.10;1.10;;;;;;;;;;5467785;26;20289;-91
2024/04/14 07:45:48;;;;;;;1.17;1.05;;;;;;;;;;5469790;26;20309;-93
2024/04/14 07:48:59;;;;;;;0.70;0.70;;;;;;;;;;5470468;26;20273;-92
2024/04/14 07:52:04;;;;;;;4.60;0.65;;;;;;;;;;5470485;26;20258;-93
2024/04/14 07:55:14;;;;;;;1.17;0.93;;;;;;;;;;5470730;26;20262;-93
2024/04/14 07:58:18;;;;;;;2.58;1.00;;;;;;;;;;5474075;26;20242;-92
2024/04/14 08:01:25;;;;;;;1.80;1.23;;;;;;;;;;5471439;26;20258;-94
2024/04/14 08:04:29;;;;;;;1.02;0.93;;;;;;;;;;5471030;26;20257;-94
2024/04/14 08:07:37;;;;;;;1.08;1.08;;;;;;;;;;5468213;26;20265;-92
2024/04/14 08:10:48;;;;;;;2.33;1.30;;;;;;;;;;5465874;26;20262;-92
2024/04/14 08:13:56;;;;;;;0.73;0.73;;;;;;;;;;5467348;26;20280;-93
2024/04/14 08:17:03;;;;;;;5.50;2.25;;;;;;;;;;5467743;26;20300;-92
2024/04/14 08:20:08;;;;;;;0.65;0.65;;;;;;;;;;5466201;26;20331;-92
2024/04/14 08:23:14;;;;;;;0.60;0.60;;;;;;;;;;5466453;26;20250;-93
2024/04/14 08:26:21;;;;;;;1.23;1.08;;;;;;;;;;5466334;26;20352;-92
2024/04/14 08:29:29;;;;;;;3.42;1.60;;;;;;;;;;5466972;26;20266;-93
2024/04/14 08:32:33;;;;;;;0.50;0.50;;;;;;;;;;5468120;26;20325;-92
2024/04/14 08:35:40;;;;;;;1.00;1.00;;;;;;;;;;5467203;26;20258;-93
2024/04/14 08:38:46;;;;;;;1.08;1.05;;;;;;;;;;5466274;26;20280;-93
2024/04/14 08:41:56;;;;;;;0.85;0.85;;;;;;;;;;5466294;26;20262;-93
2024/04/14 08:45:04;;;;;;;1.38;0.90;;;;;;;;;;5467445;26;20266;-93
2024/04/14 08:48:09;;;;;;;23.15;1.55;;;;;;;;;;5468299;26;20266;-93
2024/04/14 08:51:16;;;;;;;0.60;0.60;;;;;;;;;;5468385;26;20304;-93
2024/04/14 08:54:20;;;;;;;0.75;0.75;;;;;;;;;;5467085;26;20266;-93
2024/04/14 08:57:31;;;;;;;6.72;1.35;;;;;;;;;;5466204;26;20257;-94
2024/04/14 09:00:40;;;;;;;0.47;0.47;;;;;;;;;;5466662;26;20257;-94
2024/04/14 09:03:46;;;;;;;0.55;0.55;;;;;;;;;;5467371;26;20269;-94
2024/04/14 09:06:53;;;;;;;1.17;0.82;;;;;;;;;;5465993;26;20303;-94
2024/04/14 09:09:58;;;;;;;0.80;0.70;;;;;;;;;;5467288;26;20284;-94
2024/04/14 09:13:09;;;;;;;0.98;0.85;;;;;;;;;;5467786;26;20269;-94
2024/04/14 09:16:15;;;;;;;1.17;0.95;;;;;;;;;;5469224;26;20261;-95
2024/04/14 09:19:23;;;;;;;0.70;0.70;;;;;;;;;;5466129;26;20755;-94
2024/04/14 09:22:27;;;;;;;0.55;0.55;;;;;;;;;;5468265;26;20289;-94
2024/04/14 09:25:36;;;;;;;0.63;0.63;;;;;;;;;;5468693;26;20257;-93
2024/04/14 09:28:43;;;;;;;0.85;0.75;;;;;;;;;;5470780;26;20253;-92
2024/04/14 09:31:50;;;;;;;0.65;0.65;;;;;;;;;;5468026;26;20720;-93
2024/04/14 09:34:54;;;;;;;0.38;0.38;;;;;;;;;;5468114;26;20261;-94
2024/04/14 09:38:04;;;;;;;0.40;0.40;;;;;;;;;;5469925;26;20253;-94
2024/04/14 09:41:08;;;;;;;0.55;0.50;;;;;;;;;;5472329;26;20250;-95
2024/04/14 09:44:24;;;;;;;0.50;0.50;;;;;;;;;;5472092;26;20265;-94
2024/04/14 09:47:30;;;;;;;0.47;0.47;;;;;;;;;;5472562;26;20270;-93
2024/04/14 09:50:38;;;;;;;0.98;0.95;;;;;;;;;;5474948;26;20354;-94
2024/04/14 14:50:58;;;;;;;1.23;0.70;;;;;;;;;;5380550;22;20328;-93
2024/04/14 14:54:06;;;;;;;0.35;0.35;;;;;;;;;;5001174;28;20268;-93
2024/04/14 14:57:13;;;;;;;0.77;0.57;;;;;;;;;;5001550;28;20338;-94
2024/04/14 15:00:20;;;;;;;0.38;0.38;;;;;;;;;;5001130;28;20273;-92
2024/04/14 15:03:25;;;;;;;0.77;0.60;;;;;;;;;;5000912;28;20312;-93
2024/04/14 15:06:35;;;;;;;1.85;0.60;;;;;;;;;;5001147;28;20273;-91
2024/04/14 15:09:40;;;;;;;0.63;0.50;;;;;;;;;;5000516;28;20277;-94
2024/04/14 15:12:46;;;;;;;0.35;0.35;;;;;;;;;;5002572;28;20305;-92
2024/04/14 15:15:51;;;;;;;0.30;0.30;;;;;;;;;;5003488;28;20293;-92
2024/04/14 15:18:58;;;;;;;1.48;0.60;;;;;;;;;;5006276;28;20303;-93
2024/04/14 15:22:08;;;;;;;0.43;0.43;;;;;;;;;;5005073;28;20351;-93
2024/04/14 15:25:12;;;;;;;9.35;0.77;;;;;;;;;;5006988;28;20339;-94
2024/04/14 15:28:23;;;;;;;0.40;0.40;;;;;;;;;;5006067;28;20313;-92
2024/04/14 15:31:27;;;;;;;0.50;0.50;;;;;;;;;;5004549;28;20751;-93
2024/04/14 15:34:34;;;;;;;0.22;0.22;;;;;;;;;;5007279;28;20269;-94
2024/04/14 15:37:46;;;;;;;0.28;0.28;;;;;;;;;;5006798;28;20320;-92
2024/04/14 15:40:51;;;;;;;0.20;0.20;;;;;;;;;;5006244;28;20277;-92
2024/04/14 15:43:59;;;;;;;0.20;0.20;;;;;;;;;;5007534;28;20260;-92
2024/04/14 15:47:06;;;;;;;0.73;0.73;;;;;;;;;;5005166;28;20250;-93
2024/04/14 15:50:12;;;;;;;0.43;0.43;;;;;;;;;;5006468;28;20280;-93
2024/04/14 15:53:23;;;;;;;0.57;0.57;;;;;;;;;;5006896;28;20310;-93
2024/04/14 15:56:27;;;;;;;0.63;0.63;;;;;;;;;;5004882;28;20314;-93
2024/04/14 15:59:36;;;;;;;1.15;0.65;;;;;;;;;;5005275;28;20277;-92
2024/04/14 16:02:41;;;;;;;0.30;0.30;;;;;;;;;;5003267;28;20277;-92
2024/04/14 16:05:56;;;;;;;0.75;0.75;;;;;;;;;;5003406;28;20265;-94
2024/04/14 16:09:03;;;;;;;0.35;0.35;;;;;;;;;;5005293;28;20290;-93
2024/04/14 16:12:10;;;;;;;0.20;0.20;;;;;;;;;;5003898;28;20358;-94
2024/04/14 16:15:17;;;;;;;0.47;0.47;;;;;;;;;;5004027;28;20605;-94
2024/04/14 16:18:24;;;;;;;2.72;0.73;;;;;;;;;;5004098;28;20277;-92
2024/04/14 16:21:32;;;;;;;0.22;0.22;;;;;;;;;;5005426;28;20331;-92
2024/04/14 16:24:39;;;;;;;0.30;0.30;;;;;;;;;;5003944;28;20362;-93
2024/04/14 16:27:46;;;;;;;0.50;0.50;;;;;;;;;;5003909;28;20277;-91
2024/04/14 16:30:52;;;;;;;0.28;0.28;;;;;;;;;;5004146;28;20316;-93
2024/04/14 16:33:59;;;;;;;0.30;0.30;;;;;;;;;;5004432;28;20273;-93
2024/04/14 16:37:04;;;;;;;0.55;0.55;;;;;;;;;;5005020;28;20284;-93
2024/04/14 16:40:25;;;;;;;0.63;0.63;;;;;;;;;;5004918;28;20293;-93
2024/04/14 16:43:30;;;;;;;2.38;0.85;;;;;;;;;;5004750;28;20292;-93
2024/04/14 16:46:37;;;;;;;0.50;0.50;;;;;;;;;;5004519;28;20295;-93
2024/04/14 16:49:42;;;;;;;0.30;0.30;;;;;;;;;;5003551;28;20273;-94
2024/04/14 16:52:50;;;;;;;1.92;0.82;;;;;;;;;;4987691;28;20285;-94
2024/04/14 16:55:58;;;;;;;0.80;0.57;;;;;;;;;;5005374;28;20275;-92
2024/04/14 16:59:05;;;;;;;0.40;0.40;;;;;;;;;;5002934;28;20260;-92
2024/04/14 17:02:09;;;;;;;2.38;0.68;;;;;;;;;;5001783;28;20273;-92
2024/04/14 17:05:16;;;;;;;0.50;0.50;;;;;;;;;;5002758;28;20288;-94
2024/04/14 17:08:23;;;;;;;0.38;0.38;;;;;;;;;;5004185;28;20285;-93
2024/04/14 17:11:30;;;;;;;0.30;0.30;;;;;;;;;;5002288;28;20852;-93
2024/04/14 17:14:37;;;;;;;0.55;0.55;;;;;;;;;;5004028;28;20273;-93
2024/04/14 17:17:41;;;;;;;0.63;0.60;;;;;;;;;;5002909;28;20307;-92
2024/04/14 17:20:49;;;;;;;0.50;0.40;;;;;;;;;;5004193;28;20269;-93
2024/04/14 17:23:53;;;;;;;0.52;0.52;;;;;;;;;;5005539;28;20269;-92
2024/04/14 17:27:04;;;;;;;0.55;0.55;;;;;;;;;;5003426;28;20284;-93
2024/04/14 17:30:11;;;;;;;0.63;0.60;;;;;;;;;;5003310;28;20273;-92
2024/04/14 17:33:15;;;;;;;0.30;0.30;;;;;;;;;;5003786;28;20276;-91
2024/04/14 17:36:24;;;;;;;0.63;0.63;;;;;;;;;;5004334;28;20268;-92
2024/04/14 17:39:29;;;;;;;1.85;1.38;;;;;;;;;;5003349;28;20314;-92
2024/04/14 17:42:39;;;;;;;0.38;0.38;;;;;;;;;;5005088;28;20325;-91
2024/04/14 17:49:35;;;;;;;0.50;0.50;;;;;;;;;;5005593;28;20805;-93
2024/04/14 17:52:39;;;;;;;1.08;0.73;;;;;;;;;;5004371;28;20277;-92
2024/04/14 17:55:54;;;;;;;0.80;0.80;;;;;;;;;;5004383;28;20378;-92
2024/04/14 17:59:01;;;;;;;0.85;0.85;;;;;;;;;;5004970;28;20312;-92
2024/04/14 18:02:09;;;;;;;0.63;0.63;;;;;;;;;;5004256;28;20332;-92
2024/04/14 18:05:14;;;;;;;0.50;0.50;;;;;;;;;;5002019;28;20329;-91
2024/04/14 18:08:41;;;;;;;0.95;0.90;;;;;;;;;;5004035;28;20277;-94
2024/04/14 18:11:51;;;;;;;0.77;0.77;;;;;;;;;;5004745;28;20281;-91
2024/04/14 18:14:58;;;;;;;0.70;0.70;;;;;;;;;;5003275;28;20261;-92
2024/04/14 18:18:06;;;;;;;1.23;1.10;;;;;;;;;;5004277;28;20274;-92
2024/04/14 18:21:11;;;;;;;0.57;0.57;;;;;;;;;;5002391;28;20304;-92
2024/04/14 18:24:18;;;;;;;0.40;0.40;;;;;;;;;;5001631;28;20355;-92
2024/04/14 18:27:26;;;;;;;0.90;0.70;;;;;;;;;;5002801;28;20312;-92
2024/04/14 18:30:40;;;;;;;0.60;0.60;;;;;;;;;;5002432;28;20273;-92
2024/04/14 18:33:47;;;;;;;0.90;0.90;;;;;;;;;;5001860;28;20273;-92
2024/04/14 18:36:51;;;;;;;3.45;1.40;;;;;;;;;;5003421;28;20273;-92
2024/04/14 18:39:58;;;;;;;1.92;1.50;;;;;;;;;;5003104;28;20253;-92
2024/04/14 21:27:25;;;;;;;0.43;0.43;;;;;;;;;;5025980;23;20350;-92
2024/04/14 21:30:30;;;;;;;1.88;1.02;;;;;;;;;;5033967;28;20280;-90
2024/04/14 21:33:36;;;;;;;1.20;1.10;;;;;;;;;;5018062;28;20440;-90
2024/04/14 21:36:41;;;;;;;3.72;0.90;;;;;;;;;;5018426;28;20304;-92
2024/04/14 21:39:48;;;;;;;0.30;0.30;;;;;;;;;;5015170;28;20281;-92
2024/04/14 21:42:56;;;;;;;0.95;0.93;;;;;;;;;;5017172;28;20264;-93
2024/04/14 21:46:03;;;;;;;1.50;0.90;;;;;;;;;;5015735;28;20280;-92
2024/04/14 21:49:08;;;;;;;0.50;0.50;;;;;;;;;;5014863;28;20264;-92
2024/04/14 21:52:16;;;;;;;1.33;1.02;;;;;;;;;;5013064;28;20283;-93
2024/04/14 21:55:20;;;;;;;25.10;1.65;;;;;;;;;;5018823;28;20291;-92
2024/04/14 21:58:31;;;;;;;1.60;1.02;;;;;;;;;;5018540;28;20292;-92
2024/04/14 22:01:37;;;;;;;0.40;0.40;;;;;;;;;;5015092;28;20279;-91
2024/04/14 22:04:45;;;;;;;1.48;1.23;;;;;;;;;;5018463;28;20284;-91
2024/04/14 22:07:52;;;;;;;0.60;0.60;;;;;;;;;;5014305;28;20330;-92
2024/04/14 22:10:56;;;;;;;0.73;0.73;;;;;;;;;;5012589;28;20280;-92
2024/04/14 22:14:06;;;;;;;0.80;0.80;;;;;;;;;;5012734;28;20272;-91
2024/04/14 22:17:11;;;;;;;0.38;0.38;;;;;;;;;;5013933;28;20280;-93
2024/04/14 22:20:18;;;;;;;0.40;0.40;;;;;;;;;;5012964;28;20280;-92
2024/04/14 22:23:22;;;;;;;0.50;0.50;;;;;;;;;;5017828;28;20268;-91
2024/04/14 22:26:30;;;;;;;2.70;1.30;;;;;;;;;;5014016;28;20345;-92
2024/04/14 22:29:37;;;;;;;0.40;0.40;;;;;;;;;;5011984;28;20458;-92
2024/04/14 22:32:44;;;;;;;2.15;0.90;;;;;;;;;;5012837;28;20272;-91
2024/04/14 22:35:53;;;;;;;2.17;1.17;;;;;;;;;;5013751;28;20327;-92
2024/04/14 22:39:00;;;;;;;0.85;0.73;;;;;;;;;;5015175;28;20287;-92
2024/04/14 22:42:05;;;;;;;0.57;0.57;;;;;;;;;;5018962;28;20306;-91
2024/04/14 22:45:15;;;;;;;0.75;0.75;;;;;;;;;;5014417;28;20385;-93
2024/04/14 22:48:23;;;;;;;0.50;0.50;;;;;;;;;;5013133;28;20342;-91
2024/04/14 22:51:27;;;;;;;1.35;1.02;;;;;;;;;;5014757;28;20281;-92
2024/04/14 22:54:34;;;;;;;0.52;0.52;;;;;;;;;;5014783;28;20363;-91
2024/04/14 22:57:38;;;;;;;0.40;0.40;;;;;;;;;;5017060;28;20317;-92
2024/04/14 23:00:48;;;;;;;0.50;0.50;;;;;;;;;;5011693;28;20318;-92
2024/04/14 23:03:52;;;;;;;0.60;0.60;;;;;;;;;;5010795;28;20768;-91
2024/04/14 23:06:59;;;;;;;2.85;1.55;;;;;;;;;;5010049;28;20346;-91
2024/04/14 23:10:03;;;;;;;1.30;0.80;;;;;;;;;;5011697;28;20280;-93
2024/04/14 23:13:10;;;;;;;1.83;0.82;;;;;;;;;;5010843;28;20663;-92
2024/04/14 23:16:17;;;;;;;0.50;0.50;;;;;;;;;;5009963;28;20272;-91
2024/04/14 23:19:24;;;;;;;1.08;0.80;;;;;;;;;;5010010;28;20308;-92
2024/04/14 23:22:28;;;;;;;0.55;0.55;;;;;;;;;;5007485;28;20288;-91
2024/04/14 23:25:35;;;;;;;0.95;0.95;;;;;;;;;;5009757;28;20291;-92
2024/04/14 23:28:42;;;;;;;1.02;0.63;;;;;;;;;;5010187;28;20342;-92
2024/04/14 23:31:49;;;;;;;0.40;0.40;;;;;;;;;;5008475;28;20787;-91
2024/04/14 23:34:56;;;;;;;1.13;0.50;;;;;;;;;;5012310;28;20284;-91
2024/04/14 23:38:04;;;;;;;0.70;0.70;;;;;;;;;;5011344;28;20305;-92
2024/04/14 23:41:11;;;;;;;0.57;0.45;;;;;;;;;;5013798;28;20275;-92
2024/04/14 23:44:15;;;;;;;3.88;1.17;;;;;;;;;;5014338;28;20268;-90
2024/04/14 23:47:25;;;;;;;0.55;0.55;;;;;;;;;;5013804;28;20282;-92
2024/04/14 23:50:29;;;;;;;2.67;1.13;;;;;;;;;;5012917;28;20279;-91
2024/04/14 23:53:36;;;;;;;0.75;0.75;;;;;;;;;;5012940;28;20279;-91
2024/04/14 23:56:40;;;;;;;3.70;0.98;;;;;;;;;;5015286;28;20282;-92
2024/04/14 23:59:47;;;;;;;0.55;0.55;;;;;;;;;;5013146;28;20278;-92
